Joyce Hale — WDB9906 — position and weather

sailwx.info

Track history (hours):
 
Tides and Currents Weather Stations Pressure Air Temp Water Temp Dewpoint Dewpoint Depression Visibility Wind Speed Wind Dir Waves Ship Positions

Joyce Hale

Owner: American River Transportation Company, St Louis, MO. More information available from US FCC via Universal Licensing System and Coast Guard Vessel Documentation Center.

Last reported at 2018-Feb-14 20:14 UTC. Time now 2018-Feb-18 01:36 UTC.
Position N 32°40' W 091°07'.

Length 49 m; draft 2.9 m.

Type: Ship (hazmat cat B). MMSI: 366984910.

Date/timePositionNaut miles runAvg speedWind from/ knotsBaromVisibWave heightAir tempDewpointWater temp
2018-Feb-14 20:14N 32°40' W 091°07'1 4.4
2018-Feb-14 20:00N 32°40' W 091°08'3 3.9
2018-Feb-14 19:21N 32°38' W 091°09'2 4.3
2018-Feb-14 19:00N 32°36' W 091°09'2 3.9
2018-Feb-14 18:30N 32°35' W 091°07'2 4.2
2018-Feb-14 18:00N 32°33' W 091°06'2 3.9
2018-Feb-14 17:30N 32°31' W 091°06'2 4.6
2018-Feb-14 17:00N 32°29' W 091°07'2 4.5
2018-Feb-14 16:30N 32°27' W 091°05'2 4.5
2018-Feb-14 16:00N 32°26' W 091°03'2 4.3
2018-Feb-14 15:30N 32°25' W 091°01'2 3.7
2018-Feb-14 15:00N 32°24' W 090°59'2 3.9
2018-Feb-14 14:30N 32°22' W 091°00'2 4.0
2018-Feb-14 14:00N 32°21' W 090°58'2 4.6
2018-Feb-14 13:30N 32°21' W 090°56'2 3.7
2018-Feb-14 13:00N 32°19' W 090°54'2 3.7
2018-Feb-14 12:30N 32°18' W 090°55'2 4.5
2018-Feb-14 12:00N 32°16' W 090°57'2 4.1
2018-Feb-14 11:30N 32°15' W 090°59'2 3.8
2018-Feb-14 11:00N 32°13' W 090°59'2 4.1
2018-Feb-14 10:30N 32°11' W 090°60'2 4.0
2018-Feb-14 10:00N 32°09' W 091°00'3 3.4
2018-Feb-14 09:14N 32°07' W 091°02'2 4.3
2018-Feb-14 08:44N 32°08' W 091°05'0 0.5
2018-Feb-14 08:25N 32°08' W 091°05'1 3.0
2018-Feb-14 07:57N 32°07' W 091°07'2 4.3
2018-Feb-14 07:26N 32°06' W 091°05'2 3.1
2018-Feb-14 06:40N 32°04' W 091°03'1 3.6
2018-Feb-14 06:30N 32°03' W 091°03'  
2018-Feb-08 03:00N 32°08' W 091°06'9 6.0
2018-Feb-08 01:30N 32°14' W 090°59'4 8.7
2018-Feb-08 01:00N 32°18' W 090°56'3 5.9
2018-Feb-08 00:30N 32°20' W 090°54'3 6.6
2018-Feb-08 00:00N 32°21' W 090°58'3 5.9
2018-Feb-07 23:30N 32°24' W 090°60'4 7.3
2018-Feb-07 23:00N 32°26' W 091°03'9 8.0
2018-Feb-07 21:52N 32°34' W 091°07'  
Track history (hours):
 
Tides and Currents Weather Stations Pressure Air Temp Water Temp Dewpoint Dewpoint Depression Visibility Wind Speed Wind Dir Waves Ship Positions

Joyce Hale

Owner: American River Transportation Company, St Louis, MO. More information available from US FCC via Universal Licensing System and Coast Guard Vessel Documentation Center.

Last reported at 2018-Feb-14 20:14 UTC. Time now 2018-Feb-18 01:36 UTC.
Position N 32°40' W 091°07'.

Length 49 m; draft 2.9 m.

Type: Ship (hazmat cat B). MMSI: 366984910.

Date/timePositionNaut miles runAvg speedWind from/ knotsBaromVisibWave heightAir tempDewpointWater temp
2018-Feb-14 20:14N 32°40' W 091°07'1 4.4
2018-Feb-14 20:00N 32°40' W 091°08'3 3.9
2018-Feb-14 19:21N 32°38' W 091°09'2 4.3
2018-Feb-14 19:00N 32°36' W 091°09'2 3.9
2018-Feb-14 18:30N 32°35' W 091°07'2 4.2
2018-Feb-14 18:00N 32°33' W 091°06'2 3.9
2018-Feb-14 17:30N 32°31' W 091°06'2 4.6
2018-Feb-14 17:00N 32°29' W 091°07'2 4.5
2018-Feb-14 16:30N 32°27' W 091°05'2 4.5
2018-Feb-14 16:00N 32°26' W 091°03'2 4.3
2018-Feb-14 15:30N 32°25' W 091°01'2 3.7
2018-Feb-14 15:00N 32°24' W 090°59'2 3.9
2018-Feb-14 14:30N 32°22' W 091°00'2 4.0
2018-Feb-14 14:00N 32°21' W 090°58'2 4.6
2018-Feb-14 13:30N 32°21' W 090°56'2 3.7
2018-Feb-14 13:00N 32°19' W 090°54'2 3.7
2018-Feb-14 12:30N 32°18' W 090°55'2 4.5
2018-Feb-14 12:00N 32°16' W 090°57'2 4.1
2018-Feb-14 11:30N 32°15' W 090°59'2 3.8
2018-Feb-14 11:00N 32°13' W 090°59'2 4.1
2018-Feb-14 10:30N 32°11' W 090°60'2 4.0
2018-Feb-14 10:00N 32°09' W 091°00'3 3.4
2018-Feb-14 09:14N 32°07' W 091°02'2 4.3
2018-Feb-14 08:44N 32°08' W 091°05'0 0.5
2018-Feb-14 08:25N 32°08' W 091°05'1 3.0
2018-Feb-14 07:57N 32°07' W 091°07'2 4.3
2018-Feb-14 07:26N 32°06' W 091°05'2 3.1
2018-Feb-14 06:40N 32°04' W 091°03'1 3.6
2018-Feb-14 06:30N 32°03' W 091°03'  
2018-Feb-08 03:00N 32°08' W 091°06'9 6.0
2018-Feb-08 01:30N 32°14' W 090°59'4 8.7
2018-Feb-08 01:00N 32°18' W 090°56'3 5.9
2018-Feb-08 00:30N 32°20' W 090°54'3 6.6
2018-Feb-08 00:00N 32°21' W 090°58'3 5.9
2018-Feb-07 23:30N 32°24' W 090°60'4 7.3
2018-Feb-07 23:00N 32°26' W 091°03'9 8.0
2018-Feb-07 21:52N 32°34' W 091°07'  

Dump ship's entire track history